Time;durP1;ratioP1;P1;durP2;ratioP2;P2;SDS_P1;SDS_P2;PMS_P1;PMS_P2;Temp;Humidity;BMP_temperature;BMP_pressure;BME280_temperature;BME280_humidity;BME280_pressure;Samples;Min_cycle;Max_cycle;Signal;HPM_P1;HPM_P2
2022/09/27 00:01:15;;;;;;;8.30;6.68;;;17.80;1.00;;;;;;5089860;28;20401;-49
2022/09/27 00:03:41;;;;;;;7.63;6.82;;;17.80;1.00;;;;;;5083348;28;20085;-50
2022/09/27 00:06:09;;;;;;;7.55;6.65;;;17.80;1.00;;;;;;5091272;28;20024;-48
2022/09/27 00:08:35;;;;;;;8.05;7.35;;;17.80;1.00;;;;;;5091638;28;20035;-48
2022/09/27 00:11:04;;;;;;;8.38;7.10;;;17.70;1.00;;;;;;5088534;28;20016;-48
2022/09/27 00:13:30;;;;;;;8.90;7.90;;;17.80;1.00;;;;;;5089895;28;20024;-49
2022/09/27 00:15:58;;;;;;;8.48;7.70;;;17.80;1.00;;;;;;5091268;28;20020;-48
2022/09/27 00:18:24;;;;;;;8.82;7.70;;;17.90;1.00;;;;;;5086957;28;20078;-51
2022/09/27 00:20:49;;;;;;;8.10;7.38;;;17.80;1.00;;;;;;5081118;28;20028;-49
2022/09/27 00:23:15;;;;;;;8.15;7.32;;;17.90;1.00;;;;;;5087713;28;20024;-50
2022/09/27 00:25:40;;;;;;;8.40;7.70;;;17.90;1.00;;;;;;5086255;28;20412;-49
2022/09/27 00:28:07;;;;;;;8.55;7.70;;;17.90;1.00;;;;;;5089411;28;20093;-50
2022/09/27 00:30:33;;;;;;;8.60;7.80;;;17.90;1.00;;;;;;5090686;28;20047;-47
2022/09/27 00:32:59;;;;;;;9.13;8.32;;;17.70;1.00;;;;;;5088938;28;20056;-49
2022/09/27 00:35:24;;;;;;;8.00;7.30;;;17.60;1.00;;;;;;5088608;28;20127;-48
2022/09/27 00:37:50;;;;;;;8.10;7.30;;;17.70;1.00;;;;;;5083490;28;20028;-50
2022/09/27 00:40:16;;;;;;;8.93;8.13;;;17.80;1.00;;;;;;5090134;28;20016;-48
2022/09/27 00:42:41;;;;;;;8.60;7.90;;;17.80;1.00;;;;;;5107375;28;20077;-50
2022/09/27 00:45:16;;;;;;;9.68;8.68;;;17.70;1.00;;;;;;5091859;28;20413;-51
2022/09/27 00:47:49;;;;;;;9.68;8.80;;;17.70;1.00;;;;;;5101065;28;20050;-48
2022/09/27 00:50:21;;;;;;;9.73;8.82;;;17.70;1.00;;;;;;5086519;28;20020;-48
2022/09/27 00:53:15;;;;;;;10.82;9.75;;;17.60;1.00;;;;;;5087272;28;20466;-48
2022/09/27 00:55:57;;;;;;;10.57;9.63;;;17.70;1.00;;;;;;5075905;28;20373;-49
2022/09/27 00:58:27;;;;;;;10.48;9.57;;;17.70;1.00;;;;;;5089970;28;20066;-48
2022/09/27 01:00:57;;;;;;;11.48;10.38;;;17.80;1.00;;;;;;5087343;28;20016;-48
2022/09/27 01:03:48;;;;;;;10.18;9.18;;;17.80;1.00;;;;;;5090010;28;20024;-48
2022/09/27 01:06:15;;;;;;;10.88;9.68;;;17.80;1.00;;;;;;5091111;28;20493;-48
2022/09/27 01:08:41;;;;;;;11.10;10.00;;;17.80;1.00;;;;;;5087401;28;20384;-49
2022/09/27 01:11:33;;;;;;;11.48;10.23;;;17.80;1.00;;;;;;5084701;28;20025;-48
2022/09/27 01:14:08;;;;;;;10.88;9.55;;;17.70;1.00;;;;;;5084937;28;20075;-49
2022/09/27 01:17:03;;;;;;;9.93;8.93;;;17.60;1.00;;;;;;5089089;28;20095;-47
2022/09/27 01:20:02;;;;;;;9.90;8.90;;;17.60;1.00;;;;;;5091548;28;20039;-49
2022/09/27 01:22:36;;;;;;;8.95;7.93;;;17.60;1.00;;;;;;5087320;28;20024;-47
2022/09/27 01:25:27;;;;;;;13.25;8.45;;;17.60;1.00;;;;;;5086296;28;20089;-47
2022/09/27 01:27:58;;;;;;;8.63;7.85;;;17.60;1.00;;;;;;5086950;28;20079;-48
2022/09/27 01:30:42;;;;;;;9.20;7.40;;;17.60;1.00;;;;;;5089928;28;20036;-52
2022/09/27 01:33:51;;;;;;;8.93;8.13;;;17.60;1.00;;;;;;5085256;28;20024;-54
2022/09/27 01:37:03;;;;;;;8.70;7.82;;;17.70;1.00;;;;;;5064912;28;20055;-49
2022/09/27 01:40:20;;;;;;;7.78;7.07;;;17.70;1.00;;;;;;5090706;28;20489;-49
2022/09/27 01:42:54;;;;;;;8.43;7.63;;;17.60;1.00;;;;;;5066149;28;20043;-49
2022/09/27 01:45:34;;;;;;;8.43;7.53;;;17.70;1.00;;;;;;5080002;28;20032;-48
2022/09/27 01:48:06;;;;;;;8.80;7.90;;;17.70;1.00;;;;;;5086960;28;20315;-48
2022/09/27 01:50:44;;;;;;;10.15;9.20;;;17.80;1.00;;;;;;5076798;28;20063;-53
2022/09/27 01:53:17;;;;;;;8.85;7.95;;;17.80;1.00;;;;;;5079922;28;20112;-48
2022/09/27 01:55:44;;;;;;;9.40;8.45;;;17.80;1.00;;;;;;5079492;28;20029;-48
2022/09/27 01:58:17;;;;;;;8.75;7.63;;;17.80;1.00;;;;;;5080168;28;20050;-48
2022/09/27 02:00:48;;;;;;;8.90;7.80;;;17.80;1.00;;;;;;5089714;28;20028;-54
2022/09/27 02:03:24;;;;;;;9.38;8.43;;;17.80;1.00;;;;;;5085355;28;20024;-51
2022/09/27 02:06:00;;;;;;;9.73;8.57;;;17.70;1.00;;;;;;5083463;28;20535;-51
2022/09/27 02:08:41;;;;;;;9.77;8.88;;;17.70;1.00;;;;;;5086872;28;20081;-51
2022/09/27 02:11:12;;;;;;;12.13;9.98;;;17.80;1.00;;;;;;5090133;28;20058;-51
2022/09/27 02:14:07;;;;;;;11.65;10.45;;;17.80;1.00;;;;;;5089386;28;20355;-49
2022/09/27 02:16:54;;;;;;;11.38;9.77;;;17.80;1.00;;;;;;5079074;28;20055;-48
2022/09/27 02:19:28;;;;;;;11.13;10.10;;;17.60;1.00;;;;;;5089066;28;20032;-50
2022/09/27 02:22:14;;;;;;;11.90;9.95;;;17.70;1.00;;;;;;5081889;28;20029;-48
2022/09/27 02:24:48;;;;;;;13.23;10.10;;;17.80;1.00;;;;;;5084397;28;20050;-46
2022/09/27 02:27:22;;;;;;;11.65;9.85;;;17.80;1.00;;;;;;5089270;28;20020;-47
2022/09/27 02:29:57;;;;;;;11.30;10.20;;;17.80;1.00;;;;;;5086037;28;20036;-51
2022/09/27 02:32:23;;;;;;;12.85;11.55;;;17.70;1.00;;;;;;5087066;28;20020;-51
2022/09/27 02:34:51;;;;;;;12.60;11.30;;;17.60;1.00;;;;;;5093381;28;20346;-52
2022/09/27 02:37:17;;;;;;;13.45;12.02;;;17.70;1.00;;;;;;5090142;28;20073;-53
2022/09/27 02:39:42;;;;;;;14.70;12.48;;;17.60;1.00;;;;;;5085405;28;20112;-52
2022/09/27 02:42:08;;;;;;;14.75;12.60;;;17.60;1.00;;;;;;5083687;28;20113;-53
2022/09/27 02:44:35;;;;;;;13.90;12.38;;;17.50;1.00;;;;;;5083766;28;20047;-50
2022/09/27 02:47:29;;;;;;;13.68;12.30;;;17.60;1.00;;;;;;5092916;28;20055;-50
2022/09/27 02:50:36;;;;;;;14.73;13.20;;;17.60;1.00;;;;;;5100666;27;20139;-53
2022/09/27 02:53:17;;;;;;;15.52;13.93;;;17.60;1.00;;;;;;5079924;28;20039;-51
2022/09/27 02:55:49;;;;;;;18.13;14.52;;;17.70;1.00;;;;;;5090975;28;20438;-51
2022/09/27 02:58:29;;;;;;;17.73;14.48;;;17.60;1.00;;;;;;5093523;28;20486;-51
2022/09/27 03:01:25;;;;;;;15.65;14.10;;;17.70;1.00;;;;;;5088749;28;20134;-52
2022/09/27 03:03:53;;;;;;;16.63;14.85;;;17.70;1.00;;;;;;5081011;28;20036;-52
2022/09/27 03:06:22;;;;;;;17.88;15.30;;;17.70;1.00;;;;;;5087016;28;20113;-51
2022/09/27 03:08:49;;;;;;;16.88;15.02;;;17.70;1.00;;;;;;5081627;28;20059;-52
2022/09/27 03:11:14;;;;;;;16.90;15.20;;;17.70;1.00;;;;;;5090014;28;20027;-52
2022/09/27 03:14:17;;;;;;;17.55;15.70;;;17.70;1.00;;;;;;5090582;28;20028;-52
2022/09/27 03:16:43;;;;;;;17.63;15.80;;;17.70;1.00;;;;;;5085707;28;20523;-48
2022/09/27 03:19:09;;;;;;;18.27;16.45;;;17.70;1.00;;;;;;5090136;28;20028;-51
2022/09/27 03:21:34;;;;;;;19.42;17.35;;;17.70;1.00;;;;;;5093335;28;20027;-48
2022/09/27 03:24:01;;;;;;;19.85;17.33;;;17.60;1.00;;;;;;5092269;28;20051;-50
2022/09/27 03:26:26;;;;;;;19.33;17.25;;;17.70;1.00;;;;;;5085555;28;20451;-48
2022/09/27 03:28:52;;;;;;;19.30;17.20;;;17.60;1.00;;;;;;5090511;28;20047;-49
2022/09/27 03:31:18;;;;;;;20.45;18.35;;;17.70;1.00;;;;;;5080972;28;20036;-53
2022/09/27 03:33:44;;;;;;;19.00;17.05;;;17.70;1.00;;;;;;5089512;28;20118;-53
2022/09/27 03:36:10;;;;;;;18.63;16.73;;;17.70;1.00;;;;;;5091344;28;20093;-48
2022/09/27 03:38:36;;;;;;;18.83;16.83;;;17.60;1.00;;;;;;5091780;28;20036;-49
2022/09/27 03:41:02;;;;;;;20.48;18.38;;;17.70;1.00;;;;;;5086509;28;20028;-53
2022/09/27 03:43:27;;;;;;;19.63;17.70;;;17.80;1.00;;;;;;5087948;28;20043;-51
2022/09/27 03:45:53;;;;;;;21.15;17.75;;;17.80;1.00;;;;;;5090864;28;20516;-52
2022/09/27 03:48:19;;;;;;;21.35;18.92;;;17.80;1.00;;;;;;5092102;28;20126;-49
2022/09/27 03:50:45;;;;;;;20.75;18.65;;;17.80;1.00;;;;;;5087597;28;20024;-50
2022/09/27 03:53:10;;;;;;;19.85;17.73;;;17.60;1.00;;;;;;5084137;28;20036;-52
2022/09/27 03:55:36;;;;;;;21.77;18.63;;;17.60;1.00;;;;;;5084487;28;20028;-52
2022/09/27 03:58:02;;;;;;;20.60;18.45;;;17.70;1.00;;;;;;5078482;28;20547;-50
2022/09/27 04:00:27;;;;;;;20.45;17.90;;;17.60;1.00;;;;;;5084885;28;20537;-51
2022/09/27 04:02:53;;;;;;;19.85;17.73;;;17.60;1.00;;;;;;5088797;28;20062;-48
2022/09/27 04:05:18;;;;;;;19.50;17.42;;;17.70;1.00;;;;;;5086289;28;20024;-51
2022/09/27 04:07:48;;;;;;;20.35;18.15;;;17.70;1.00;;;;;;5083561;28;20036;-51
2022/09/27 04:10:14;;;;;;;21.73;19.02;;;17.70;1.00;;;;;;5086189;28;20059;-50
2022/09/27 04:12:40;;;;;;;21.10;18.05;;;17.60;1.00;;;;;;5091608;28;20024;-51
2022/09/27 04:15:07;;;;;;;20.23;18.05;;;17.60;1.00;;;;;;5089926;28;20024;-53
2022/09/27 04:17:33;;;;;;;22.02;18.50;;;17.50;1.00;;;;;;5079920;28;20474;-52
2022/09/27 04:20:02;;;;;;;21.80;17.92;;;17.50;1.00;;;;;;5090727;28;20032;-49
2022/09/27 04:22:28;;;;;;;19.55;17.48;;;17.50;1.00;;;;;;5088334;28;20031;-48
2022/09/27 04:24:53;;;;;;;20.58;17.80;;;17.50;1.00;;;;;;5079326;28;20028;-51
2022/09/27 04:27:21;;;;;;;21.65;19.35;;;17.50;1.00;;;;;;5086951;28;20027;-50
2022/09/27 04:29:47;;;;;;;22.13;18.10;;;17.50;1.00;;;;;;5091300;28;20064;-52
2022/09/27 04:32:13;;;;;;;21.63;17.92;;;17.50;1.00;;;;;;5089066;28;20492;-52
2022/09/27 04:37:24;;;;;;;21.20;17.55;;;17.40;1.00;;;;;;5087225;28;20042;-47
2022/09/27 04:39:50;;;;;;;19.35;17.30;;;17.40;1.00;;;;;;5093381;28;20367;-48
2022/09/27 04:42:16;;;;;;;32.10;17.92;;;17.40;1.00;;;;;;5090196;28;20042;-47
2022/09/27 04:44:42;;;;;;;20.38;18.17;;;17.40;1.00;;;;;;5090033;28;20035;-50
2022/09/27 04:47:08;;;;;;;20.38;18.27;;;17.40;1.00;;;;;;5078452;28;20102;-46
2022/09/27 04:49:34;;;;;;;18.90;16.88;;;17.30;1.00;;;;;;5091859;28;20036;-46
2022/09/27 04:52:00;;;;;;;19.70;17.65;;;17.30;1.00;;;;;;5086442;28;20464;-48
2022/09/27 04:54:26;;;;;;;18.85;16.85;;;17.30;1.00;;;;;;5078086;28;20035;-48
2022/09/27 04:56:51;;;;;;;19.98;17.80;;;17.30;1.00;;;;;;5083389;28;20028;-48
2022/09/27 04:59:17;;;;;;;21.98;18.30;;;17.40;1.00;;;;;;5091822;28;20042;-47
2022/09/27 05:01:44;;;;;;;23.90;20.67;;;17.30;1.00;;;;;;5083855;28;20027;-47
2022/09/27 05:04:09;;;;;;;28.23;23.63;;;17.40;1.00;;;;;;5087743;28;20036;-49
2022/09/27 05:06:35;;;;;;;24.88;21.00;;;17.30;1.00;;;;;;5089764;28;20080;-50
2022/09/27 05:09:00;;;;;;;23.75;20.98;;;17.30;1.00;;;;;;5077213;28;20128;-47
2022/09/27 05:11:26;;;;;;;24.23;21.27;;;17.30;1.00;;;;;;5084998;28;20031;-47
2022/09/27 05:13:52;;;;;;;23.70;20.25;;;17.20;1.00;;;;;;5086791;28;20051;-48
2022/09/27 05:16:18;;;;;;;24.17;21.02;;;17.30;1.00;;;;;;5083518;28;20028;-47
2022/09/27 05:18:44;;;;;;;25.70;21.90;;;17.20;1.00;;;;;;5078449;28;20029;-51
2022/09/27 05:21:10;;;;;;;25.08;20.85;;;17.30;1.00;;;;;;5079477;28;20035;-50
2022/09/27 05:23:36;;;;;;;24.58;20.13;;;17.30;1.00;;;;;;5090453;28;20028;-47
2022/09/27 05:26:05;;;;;;;26.13;20.45;;;17.40;1.00;;;;;;5087577;28;20020;-47
2022/09/27 05:28:31;;;;;;;22.25;19.63;;;17.30;1.00;;;;;;5091489;28;20046;-50
2022/09/27 05:30:57;;;;;;;25.30;21.88;;;17.40;1.00;;;;;;5088266;28;20130;-50
2022/09/27 05:33:23;;;;;;;24.08;21.40;;;17.30;1.00;;;;;;5083668;28;20107;-47
2022/09/27 05:35:56;;;;;;;26.40;21.60;;;17.20;1.00;;;;;;5087889;28;20054;-49
2022/09/27 05:38:22;;;;;;;24.42;21.85;;;17.20;1.00;;;;;;5078559;28;20094;-52
2022/09/27 05:40:49;;;;;;;26.77;23.65;;;17.20;1.00;;;;;;5085297;28;20077;-48
2022/09/27 05:43:16;;;;;;;34.42;27.33;;;17.20;1.00;;;;;;5085223;28;20032;-51
2022/09/27 05:45:43;;;;;;;29.40;25.75;;;17.20;1.00;;;;;;5087019;28;20048;-47
2022/09/27 05:48:11;;;;;;;29.40;23.85;;;17.20;1.00;;;;;;5089103;28;20400;-48
2022/09/27 05:50:37;;;;;;;25.85;23.10;;;17.20;1.00;;;;;;5090723;28;20032;-49
2022/09/27 05:53:03;;;;;;;25.17;22.23;;;17.20;1.00;;;;;;5086337;28;20505;-49
2022/09/27 05:55:29;;;;;;;26.73;22.65;;;17.20;1.00;;;;;;5092124;28;20028;-49
2022/09/27 05:57:55;;;;;;;25.70;22.85;;;17.20;1.00;;;;;;5085656;28;20028;-47
2022/09/27 06:00:21;;;;;;;30.42;23.13;;;17.10;1.00;;;;;;5087651;28;20078;-48
2022/09/27 06:02:53;;;;;;;27.13;23.08;;;17.10;1.00;;;;;;5081383;28;20024;-47
2022/09/27 06:05:19;;;;;;;30.58;22.85;;;17.20;1.00;;;;;;5087554;28;20619;-47
2022/09/27 06:07:45;;;;;;;26.73;23.10;;;17.20;1.00;;;;;;5084308;28;20043;-49
2022/09/27 06:10:10;;;;;;;27.98;23.40;;;17.20;1.00;;;;;;5084116;28;20363;-53
2022/09/27 06:12:37;;;;;;;28.90;24.83;;;17.20;1.00;;;;;;5079066;28;20028;-49
2022/09/27 06:15:03;;;;;;;24.95;22.27;;;17.20;1.00;;;;;;5085246;28;20031;-48
2022/09/27 06:17:29;;;;;;;28.45;24.00;;;17.20;1.00;;;;;;5085192;28;20429;-48
2022/09/27 06:19:55;;;;;;;28.05;24.30;;;17.20;1.00;;;;;;5086125;28;20197;-47
2022/09/27 06:22:22;;;;;;;29.10;23.15;;;17.20;1.00;;;;;;5089368;28;20533;-47
2022/09/27 06:24:48;;;;;;;29.92;24.38;;;17.20;1.00;;;;;;5080115;28;20028;-46
2022/09/27 06:27:13;;;;;;;26.67;23.70;;;17.20;1.00;;;;;;5084634;28;20524;-47
2022/09/27 06:29:39;;;;;;;36.08;27.13;;;17.20;1.00;;;;;;5084942;28;20181;-47
2022/09/27 06:32:05;;;;;;;36.10;27.10;;;17.20;1.00;;;;;;5078668;28;20020;-47
2022/09/27 06:34:31;;;;;;;32.42;24.58;;;17.20;1.00;;;;;;5078746;28;20035;-49
2022/09/27 06:36:57;;;;;;;29.58;23.77;;;17.30;1.00;;;;;;5086472;28;20082;-46
2022/09/27 06:39:22;;;;;;;30.48;23.88;;;17.40;1.00;;;;;;5084434;28;20028;-50
2022/09/27 06:41:51;;;;;;;27.38;24.48;;;17.40;1.00;;;;;;5082048;28;20028;-47
2022/09/27 06:44:17;;;;;;;26.45;23.55;;;17.30;1.00;;;;;;5088648;28;20438;-47
2022/09/27 06:46:42;;;;;;;26.73;23.27;;;17.30;1.00;;;;;;5089579;28;20099;-46
2022/09/27 06:49:08;;;;;;;28.95;24.75;;;17.40;1.00;;;;;;5080589;28;20040;-47
2022/09/27 06:51:33;;;;;;;27.83;24.13;;;17.40;1.00;;;;;;5087551;28;20105;-47
2022/09/27 06:53:59;;;;;;;26.85;23.45;;;17.40;1.00;;;;;;5089741;28;20518;-49
2022/09/27 06:56:25;;;;;;;29.17;24.40;;;17.40;1.00;;;;;;5094442;28;20378;-47
2022/09/27 07:01:35;;;;;;;28.10;22.13;;;17.50;1.00;;;;;;5092263;28;20126;-49
2022/09/27 07:04:01;;;;;;;30.15;23.88;;;17.60;1.00;;;;;;5091575;28;20036;-48
2022/09/27 07:06:26;;;;;;;25.27;22.55;;;17.70;1.00;;;;;;5088792;28;20027;-48
2022/09/27 07:08:52;;;;;;;27.02;22.33;;;17.80;1.00;;;;;;5089031;28;20493;-47
2022/09/27 07:11:19;;;;;;;26.85;22.65;;;17.90;1.00;;;;;;5081485;28;20030;-48
2022/09/27 07:13:45;;;;;;;26.92;21.60;;;18.00;1.00;;;;;;5085853;28;20059;-47
2022/09/27 07:16:14;;;;;;;26.65;22.38;;;18.00;1.00;;;;;;5089005;28;20052;-47
2022/09/27 07:18:41;;;;;;;23.67;20.80;;;18.00;1.00;;;;;;5084055;28;20056;-47
2022/09/27 07:21:07;;;;;;;24.05;19.95;;;18.00;1.00;;;;;;5087040;28;20548;-47
2022/09/27 07:23:35;;;;;;;24.65;21.65;;;18.10;1.00;;;;;;5089532;28;20047;-48
2022/09/27 07:26:06;;;;;;;21.90;19.70;;;18.00;1.00;;;;;;5084230;28;20036;-48
2022/09/27 07:28:32;;;;;;;23.27;20.73;;;18.10;1.00;;;;;;5087490;28;20346;-48
2022/09/27 07:30:58;;;;;;;23.27;18.65;;;18.10;1.00;;;;;;5089087;28;20487;-48
2022/09/27 07:33:24;;;;;;;22.63;20.20;;;18.10;1.00;;;;;;5088994;28;20024;-48
2022/09/27 07:35:49;;;;;;;21.70;18.98;;;18.10;1.00;;;;;;5094105;28;20138;-48
2022/09/27 07:38:15;;;;;;;22.33;20.00;;;18.10;1.00;;;;;;5081719;28;20029;-47
2022/09/27 07:40:41;;;;;;;23.10;19.70;;;18.00;1.00;;;;;;5087024;28;20111;-47
2022/09/27 07:43:08;;;;;;;22.60;19.67;;;18.00;1.00;;;;;;5089110;28;20110;-47
2022/09/27 07:45:34;;;;;;;24.08;21.00;;;18.00;1.00;;;;;;5089596;28;20379;-47
2022/09/27 07:48:02;;;;;;;22.67;20.33;;;18.00;1.00;;;;;;5086672;28;20032;-47
2022/09/27 07:50:29;;;;;;;24.45;20.92;;;18.00;1.00;;;;;;5089008;28;20452;-62
2022/09/27 07:52:55;;;;;;;21.88;19.65;;;18.00;1.00;;;;;;5082245;28;20031;-64
2022/09/27 07:55:20;;;;;;;25.30;22.70;;;17.90;1.00;;;;;;5078899;28;20036;-60
2022/09/27 07:57:46;;;;;;;25.25;22.48;;;17.90;1.00;;;;;;5081468;28;20050;-59
2022/09/27 08:00:15;;;;;;;23.98;21.27;;;17.90;1.00;;;;;;5079271;28;20044;-53
2022/09/27 08:02:41;;;;;;;22.27;19.92;;;17.90;1.00;;;;;;5080235;28;20020;-65
2022/09/27 08:05:08;;;;;;;26.33;21.67;;;17.90;1.00;;;;;;5078207;28;20024;-57
2022/09/27 08:07:33;;;;;;;24.63;22.08;;;17.90;1.00;;;;;;5079427;28;20204;-59
2022/09/27 08:09:59;;;;;;;24.08;21.70;;;18.00;1.00;;;;;;5080957;28;20497;-61
2022/09/27 08:12:25;;;;;;;26.25;22.98;;;18.00;1.00;;;;;;5078240;28;20019;-50
2022/09/27 08:14:51;;;;;;;25.20;21.23;;;18.00;1.00;;;;;;5078142;28;20035;-53
2022/09/27 08:17:18;;;;;;;32.38;21.23;;;18.00;1.00;;;;;;5079208;28;20477;-60
2022/09/27 08:19:44;;;;;;;23.40;20.90;;;18.00;1.00;;;;;;5078720;28;20023;-55
2022/09/27 08:22:13;;;;;;;25.75;21.73;;;18.10;1.00;;;;;;5075079;28;20394;-63
2022/09/27 08:24:39;;;;;;;23.75;20.63;;;18.10;1.00;;;;;;5078710;28;20031;-62
2022/09/27 08:27:06;;;;;;;24.02;20.92;;;18.10;1.00;;;;;;5084091;28;20499;-59
2022/09/27 08:29:33;;;;;;;23.92;20.55;;;18.10;1.00;;;;;;5081031;28;20344;-56
2022/09/27 08:31:58;;;;;;;22.67;20.27;;;18.10;1.00;;;;;;5084244;28;20032;-51
2022/09/27 08:34:24;;;;;;;24.40;21.75;;;18.10;1.00;;;;;;5081881;28;20028;-65
2022/09/27 08:36:49;;;;;;;23.30;20.20;;;18.10;1.00;;;;;;5084017;28;20462;-55
2022/09/27 08:39:15;;;;;;;22.88;20.52;;;18.20;1.00;;;;;;5082357;28;20115;-61
2022/09/27 08:41:46;;;;;;;22.05;19.67;;;18.20;1.00;;;;;;5082027;28;20027;-53
2022/09/27 08:44:30;;;;;;;24.75;21.38;;;18.10;1.00;;;;;;5075638;28;20121;-69
2022/09/27 08:47:11;;;;;;;22.25;19.90;;;18.10;1.00;;;;;;5083768;28;20068;-65
2022/09/27 08:49:58;;;;;;;22.98;20.58;;;18.20;1.00;;;;;;5082868;28;20036;-64
2022/09/27 08:52:36;;;;;;;23.52;21.10;;;18.30;1.00;;;;;;5079362;28;20024;-61
2022/09/27 08:55:07;;;;;;;25.30;21.70;;;18.30;1.00;;;;;;5086051;28;20040;-62
2022/09/27 08:57:33;;;;;;;24.77;22.05;;;18.40;1.00;;;;;;5076425;28;20445;-67
2022/09/27 09:00:10;;;;;;;24.58;21.83;;;18.50;1.00;;;;;;5077382;28;20063;-65
2022/09/27 09:02:36;;;;;;;24.20;21.00;;;18.50;1.00;;;;;;5081621;28;20064;-56
2022/09/27 09:05:12;;;;;;;22.73;19.83;;;18.50;1.00;;;;;;5081203;28;20032;-63
2022/09/27 09:08:05;;;;;;;23.70;21.20;;;18.60;1.00;;;;;;5079213;28;20040;-50
2022/09/27 09:13:47;;;;;;;19.83;17.77;;;18.60;1.00;;;;;;5082121;28;20046;-55
2022/09/27 09:16:32;;;;;;;17.77;16.08;;;18.60;1.00;;;;;;5078957;28;20024;-58
2022/09/27 09:19:03;;;;;;;21.00;18.85;;;18.60;1.00;;;;;;5080743;28;20077;-51
2022/09/27 09:21:34;;;;;;;19.95;17.23;;;18.60;1.00;;;;;;5078543;28;20213;-60
2022/09/27 09:24:09;;;;;;;21.10;17.85;;;18.70;1.00;;;;;;5081710;28;20032;-61
2022/09/27 09:26:41;;;;;;;19.55;17.55;;;18.70;1.00;;;;;;5083810;28;20024;-55
2022/09/27 09:29:25;;;;;;;21.13;18.77;;;18.80;1.00;;;;;;5077588;28;20032;-63
2022/09/27 09:32:15;;;;;;;20.27;18.17;;;18.80;1.00;;;;;;5081989;28;20075;-69
2022/09/27 09:34:46;;;;;;;20.98;18.80;;;18.80;1.00;;;;;;5079261;28;20028;-65
2022/09/27 09:37:20;;;;;;;21.48;19.27;;;18.80;1.00;;;;;;5081087;28;20487;-69
2022/09/27 09:40:01;;;;;;;22.30;20.07;;;18.80;1.00;;;;;;5078852;28;20588;-67
2022/09/27 09:42:53;;;;;;;23.95;20.88;;;18.90;1.00;;;;;;5077088;28;20020;-63
2022/09/27 09:45:52;;;;;;;22.17;19.85;;;18.90;1.00;;;;;;5075489;28;20446;-68
2022/09/27 09:48:45;;;;;;;24.08;21.40;;;18.90;1.00;;;;;;5080469;28;20367;-65
2022/09/27 09:51:19;;;;;;;22.60;20.17;;;19.00;1.00;;;;;;5078395;28;20027;-62
2022/09/27 09:54:11;;;;;;;22.90;20.50;;;19.00;1.00;;;;;;5083876;28;20040;-60
2022/09/27 09:56:47;;;;;;;22.17;19.70;;;19.00;1.00;;;;;;5068882;28;20583;-61
2022/09/27 09:59:22;;;;;;;22.92;20.52;;;19.10;1.00;;;;;;5075020;28;20489;-60
2022/09/27 10:01:48;;;;;;;21.48;19.30;;;19.10;1.00;;;;;;5082588;28;20032;-62
2022/09/27 10:04:26;;;;;;;21.55;19.30;;;19.10;1.00;;;;;;5078596;28;20020;-60
2022/09/27 10:06:54;;;;;;;21.85;19.65;;;19.30;1.00;;;;;;5080207;28;20025;-66
2022/09/27 10:09:24;;;;;;;19.35;16.67;;;19.40;1.00;;;;;;5075511;28;20040;-59
2022/09/27 10:11:50;;;;;;;20.20;18.20;;;19.40;1.00;;;;;;5077501;28;20035;-59
2022/09/27 10:14:18;;;;;;;21.35;19.02;;;19.50;1.00;;;;;;5073526;28;20021;-62
2022/09/27 10:16:48;;;;;;;20.38;18.27;;;19.50;1.00;;;;;;5080208;28;20439;-61
2022/09/27 10:19:25;;;;;;;20.65;18.55;;;19.50;1.00;;;;;;5075184;28;20027;-69
2022/09/27 10:21:52;;;;;;;18.17;16.38;;;19.40;1.00;;;;;;5077560;28;20026;-60
2022/09/27 10:24:18;;;;;;;19.25;17.25;;;19.50;1.00;;;;;;5080426;28;20092;-63
2022/09/27 10:26:47;;;;;;;18.27;15.70;;;19.50;1.00;;;;;;5099457;28;20486;-63
2022/09/27 10:29:26;;;;;;;16.17;13.45;;;19.50;1.00;;;;;;5081567;28;20547;-67
2022/09/27 10:31:52;;;;;;;16.40;14.65;;;19.50;1.00;;;;;;5082558;28;20060;-65
2022/09/27 10:34:32;;;;;;;17.60;15.80;;;19.60;1.00;;;;;;5081297;28;20624;-53
2022/09/27 10:37:16;;;;;;;17.85;16.05;;;19.50;1.00;;;;;;5079042;28;20028;-53
2022/09/27 10:39:46;;;;;;;18.10;16.38;;;19.50;1.00;;;;;;5077665;28;20103;-53
2022/09/27 10:42:21;;;;;;;20.25;17.95;;;19.60;1.00;;;;;;5083296;28;20029;-51
2022/09/27 10:44:47;;;;;;;17.05;15.20;;;19.80;1.00;;;;;;5081428;28;20049;-54
2022/09/27 10:47:21;;;;;;;17.83;15.95;;;20.00;1.00;;;;;;5081186;28;20020;-57
2022/09/27 10:49:51;;;;;;;16.17;14.48;;;20.00;1.00;;;;;;5079202;28;20037;-53
2022/09/27 10:52:20;;;;;;;16.75;15.07;;;20.10;1.00;;;;;;5084714;28;20026;-51
2022/09/27 10:54:53;;;;;;;13.63;12.32;;;20.10;1.00;;;;;;5078928;28;20025;-54
2022/09/27 10:57:22;;;;;;;14.68;13.18;;;20.20;1.00;;;;;;5087523;28;20048;-53
2022/09/27 11:00:28;;;;;;;15.68;14.18;;;20.30;1.00;;;;;;5083458;28;20020;-51
2022/09/27 11:03:05;;;;;;;14.68;13.25;;;20.30;1.00;;;;;;5078106;28;20040;-59
2022/09/27 11:05:37;;;;;;;14.77;11.80;;;20.30;1.00;;;;;;5080414;28;20064;-53
2022/09/27 11:08:27;;;;;;;13.60;12.18;;;20.30;1.00;;;;;;5083913;28;20024;-59
2022/09/27 11:11:06;;;;;;;13.90;12.45;;;20.40;1.00;;;;;;5077252;28;20039;-59
2022/09/27 11:13:34;;;;;;;16.77;12.50;;;20.40;1.00;;;;;;5082795;28;20036;-59
2022/09/27 11:16:29;;;;;;;14.60;13.18;;;20.50;1.00;;;;;;5081069;28;20059;-60
2022/09/27 11:18:55;;;;;;;18.33;16.13;;;20.70;1.00;;;;;;5079728;28;20032;-52
2022/09/27 11:21:46;;;;;;;18.33;16.42;;;20.70;1.00;;;;;;5075542;28;20028;-51
2022/09/27 11:24:38;;;;;;;20.52;18.40;;;20.70;1.00;;;;;;5081973;28;20021;-53
2022/09/27 11:27:36;;;;;;;21.10;18.98;;;20.90;1.00;;;;;;5082009;28;20028;-62
2022/09/27 11:30:07;;;;;;;26.92;19.40;;;20.80;1.00;;;;;;5075390;28;20040;-48
2022/09/27 11:33:06;;;;;;;21.52;17.88;;;20.90;1.00;;;;;;5083872;28;20032;-46
2022/09/27 11:35:51;;;;;;;39.60;24.42;;;21.00;1.00;;;;;;5081291;28;20029;-47
2022/09/27 11:38:24;;;;;;;18.13;16.17;;;21.10;1.00;;;;;;5074751;28;20040;-48
2022/09/27 11:41:08;;;;;;;22.95;17.83;;;21.10;1.00;;;;;;5082308;28;20020;-49
2022/09/27 11:44:14;;;;;;;16.27;14.60;;;21.10;1.00;;;;;;5076171;28;20029;-46
2022/09/27 11:46:40;;;;;;;14.02;11.98;;;21.10;1.00;;;;;;5081133;28;20496;-46
2022/09/27 11:49:18;;;;;;;13.05;11.43;;;21.30;1.00;;;;;;5082128;28;20305;-47
2022/09/27 11:52:15;;;;;;;12.32;11.20;;;21.30;1.00;;;;;;5075607;28;20017;-46
2022/09/27 11:55:24;;;;;;;12.07;10.98;;;21.50;1.00;;;;;;5080851;28;20040;-46
2022/09/27 11:58:01;;;;;;;14.20;12.80;;;21.40;1.00;;;;;;5043941;28;20033;-49
2022/09/27 12:00:54;;;;;;;12.80;11.60;;;21.40;1.00;;;;;;5078150;28;20489;-47
2022/09/27 12:03:53;;;;;;;11.68;10.23;;;21.50;1.00;;;;;;5084568;28;20043;-47
2022/09/27 12:06:36;;;;;;;11.30;10.10;;;21.50;1.00;;;;;;5079007;28;20088;-66
2022/09/27 12:09:18;;;;;;;12.75;11.30;;;21.60;1.00;;;;;;5089992;28;20046;-65
2022/09/27 12:11:50;;;;;;;13.57;11.07;;;22.00;1.00;;;;;;5090891;28;20152;-53
2022/09/27 12:14:37;;;;;;;14.27;12.88;;;22.00;1.00;;;;;;5083385;28;20441;-56
2022/09/27 12:17:07;;;;;;;15.82;14.32;;;22.30;1.00;;;;;;5084130;28;20453;-57
2022/09/27 12:19:38;;;;;;;15.75;14.05;;;22.40;1.00;;;;;;5075352;28;20037;-59
2022/09/27 12:22:06;;;;;;;14.88;13.32;;;22.50;1.00;;;;;;5080814;28;20081;-59
2022/09/27 12:24:33;;;;;;;15.70;13.60;;;22.40;1.00;;;;;;5078993;28;20451;-60
2022/09/27 12:27:06;;;;;;;15.68;14.25;;;22.60;1.00;;;;;;5085344;28;20028;-59
2022/09/27 12:29:38;;;;;;;15.93;13.30;;;22.60;1.00;;;;;;5090935;28;20036;-57
2022/09/27 12:32:17;;;;;;;13.77;12.35;;;22.80;1.00;;;;;;5106817;28;20393;-50
2022/09/27 12:34:53;;;;;;;12.32;11.15;;;23.10;1.00;;;;;;5086681;28;20035;-48
2022/09/27 12:37:30;;;;;;;11.43;10.43;;;23.20;1.00;;;;;;5085020;28;20061;-53
2022/09/27 12:40:20;;;;;;;11.95;10.82;;;25.40;1.00;;;;;;5088509;28;20035;-57
2022/09/27 12:42:56;;;;;;;13.07;11.88;;;30.00;1.00;;;;;;5091452;28;20035;-53
2022/09/27 12:45:45;;;;;;;12.68;11.48;;;33.90;1.00;;;;;;5091432;28;20052;-62
2022/09/27 12:48:22;;;;;;;12.75;11.57;;;34.40;1.00;;;;;;5074282;28;20547;-48
2022/09/27 12:51:00;;;;;;;11.60;10.57;;;35.30;1.00;;;;;;5077109;28;20025;-52
2022/09/27 12:53:34;;;;;;;10.48;9.40;;;36.50;1.00;;;;;;5092329;28;20111;-60
2022/09/27 12:56:19;;;;;;;9.02;8.15;;;38.30;1.00;;;;;;5089747;28;20035;-61
2022/09/27 12:58:56;;;;;;;9.63;8.73;;;35.40;1.00;;;;;;5085549;28;20020;-63
2022/09/27 13:02:01;;;;;;;9.00;8.20;;;32.30;1.00;;;;;;5089318;28;20123;-59
2022/09/27 13:04:30;;;;;;;;;;;30.60;1.00;;;;;;5084544;28;20032;-58
2022/09/27 13:07:20;;;;;;;9.80;8.68;;;29.80;1.00;;;;;;5086498;28;19924;-58
2022/09/27 13:09:51;;;;;;;8.82;7.93;;;31.40;1.00;;;;;;5083952;28;20050;-62
2022/09/27 13:12:23;;;;;;;9.88;8.07;;;32.40;1.00;;;;;;5076508;28;20032;-59
2022/09/27 13:15:12;;;;;;;10.52;9.40;;;34.50;1.00;;;;;;5080614;28;20033;-62
2022/09/27 13:17:41;;;;;;;9.55;8.60;;;33.50;1.00;;;;;;5072604;28;20052;-60